sensor_id;sensor_type;location;lat;lon;timestamp;P1;durP1;ratioP1;P2;durP2;ratioP2
568;SDS011;269;48.884;9.192;2022-08-03T00:00:54;4.00;;;3.70;;
568;SDS011;269;48.884;9.192;2022-08-03T00:03:23;4.70;;;4.23;;
568;SDS011;269;48.884;9.192;2022-08-03T00:05:51;4.67;;;4.20;;
568;SDS011;269;48.884;9.192;2022-08-03T00:08:18;5.53;;;4.13;;
568;SDS011;269;48.884;9.192;2022-08-03T00:10:45;4.40;;;4.10;;
568;SDS011;269;48.884;9.192;2022-08-03T00:13:12;4.00;;;3.70;;
568;SDS011;269;48.884;9.192;2022-08-03T00:15:39;3.93;;;3.63;;
568;SDS011;269;48.884;9.192;2022-08-03T00:18:06;5.87;;;4.27;;
568;SDS011;269;48.884;9.192;2022-08-03T00:20:35;4.10;;;3.80;;
568;SDS011;269;48.884;9.192;2022-08-03T00:23:03;4.30;;;4.00;;
568;SDS011;269;48.884;9.192;2022-08-03T00:25:31;4.20;;;3.90;;
568;SDS011;269;48.884;9.192;2022-08-03T00:27:59;5.03;;;4.50;;
568;SDS011;269;48.884;9.192;2022-08-03T00:30:26;5.17;;;4.77;;
568;SDS011;269;48.884;9.192;2022-08-03T00:32:54;4.33;;;4.03;;
568;SDS011;269;48.884;9.192;2022-08-03T00:35:21;5.33;;;4.93;;
568;SDS011;269;48.884;9.192;2022-08-03T00:37:49;5.07;;;4.67;;
568;SDS011;269;48.884;9.192;2022-08-03T00:40:17;5.23;;;4.73;;
568;SDS011;269;48.884;9.192;2022-08-03T00:42:46;5.37;;;4.87;;
568;SDS011;269;48.884;9.192;2022-08-03T00:45:15;4.60;;;4.30;;
568;SDS011;269;48.884;9.192;2022-08-03T00:47:42;4.20;;;3.90;;
568;SDS011;269;48.884;9.192;2022-08-03T00:50:10;4.40;;;4.10;;
568;SDS011;269;48.884;9.192;2022-08-03T00:52:37;5.27;;;4.77;;
568;SDS011;269;48.884;9.192;2022-08-03T00:55:06;4.70;;;4.30;;
568;SDS011;269;48.884;9.192;2022-08-03T00:57:34;4.57;;;4.10;;
568;SDS011;269;48.884;9.192;2022-08-03T01:00:03;4.33;;;3.93;;
568;SDS011;269;48.884;9.192;2022-08-03T01:02:33;4.10;;;3.80;;
568;SDS011;269;48.884;9.192;2022-08-03T01:05:00;4.43;;;4.03;;
568;SDS011;269;48.884;9.192;2022-08-03T01:07:32;4.10;;;3.80;;
568;SDS011;269;48.884;9.192;2022-08-03T01:10:11;5.20;;;4.80;;
568;SDS011;269;48.884;9.192;2022-08-03T01:12:46;4.53;;;4.13;;
568;SDS011;269;48.884;9.192;2022-08-03T01:15:20;4.63;;;4.33;;
568;SDS011;269;48.884;9.192;2022-08-03T01:17:54;4.37;;;4.07;;
568;SDS011;269;48.884;9.192;2022-08-03T01:20:26;4.90;;;4.50;;
568;SDS011;269;48.884;9.192;2022-08-03T01:25:58;4.47;;;4.07;;
568;SDS011;269;48.884;9.192;2022-08-03T01:28:46;4.83;;;4.40;;
568;SDS011;269;48.884;9.192;2022-08-03T01:31:25;5.20;;;4.70;;
568;SDS011;269;48.884;9.192;2022-08-03T01:33:55;5.23;;;4.83;;
568;SDS011;269;48.884;9.192;2022-08-03T01:36:28;5.60;;;5.20;;
568;SDS011;269;48.884;9.192;2022-08-03T01:39:00;5.87;;;5.47;;
568;SDS011;269;48.884;9.192;2022-08-03T01:41:35;5.47;;;5.07;;
568;SDS011;269;48.884;9.192;2022-08-03T01:44:07;5.73;;;5.23;;
568;SDS011;269;48.884;9.192;2022-08-03T01:46:37;6.70;;;5.87;;
568;SDS011;269;48.884;9.192;2022-08-03T01:49:06;6.13;;;5.63;;
568;SDS011;269;48.884;9.192;2022-08-03T01:51:36;5.43;;;5.03;;
568;SDS011;269;48.884;9.192;2022-08-03T01:54:08;5.70;;;5.20;;
568;SDS011;269;48.884;9.192;2022-08-03T01:56:36;5.33;;;4.80;;
568;SDS011;269;48.884;9.192;2022-08-03T01:59:05;5.10;;;4.70;;
568;SDS011;269;48.884;9.192;2022-08-03T02:01:34;4.40;;;4.10;;
568;SDS011;269;48.884;9.192;2022-08-03T02:04:04;4.77;;;4.47;;
568;SDS011;269;48.884;9.192;2022-08-03T02:06:33;4.30;;;3.80;;
568;SDS011;269;48.884;9.192;2022-08-03T02:09:02;4.80;;;4.40;;
568;SDS011;269;48.884;9.192;2022-08-03T02:11:31;4.93;;;4.53;;
568;SDS011;269;48.884;9.192;2022-08-03T02:14:01;5.43;;;5.03;;
568;SDS011;269;48.884;9.192;2022-08-03T02:16:31;4.97;;;4.57;;
568;SDS011;269;48.884;9.192;2022-08-03T02:18:59;5.60;;;5.20;;
568;SDS011;269;48.884;9.192;2022-08-03T02:21:31;4.73;;;4.40;;
568;SDS011;269;48.884;9.192;2022-08-03T02:24:01;4.80;;;4.50;;
568;SDS011;269;48.884;9.192;2022-08-03T02:26:29;5.33;;;4.90;;
568;SDS011;269;48.884;9.192;2022-08-03T02:29:03;4.90;;;4.50;;
568;SDS011;269;48.884;9.192;2022-08-03T02:31:36;5.43;;;4.93;;
568;SDS011;269;48.884;9.192;2022-08-03T02:34:05;5.20;;;4.80;;
568;SDS011;269;48.884;9.192;2022-08-03T02:36:39;4.70;;;4.10;;
568;SDS011;269;48.884;9.192;2022-08-03T02:39:09;4.60;;;4.30;;
568;SDS011;269;48.884;9.192;2022-08-03T02:41:40;5.23;;;4.83;;
568;SDS011;269;48.884;9.192;2022-08-03T02:44:11;5.07;;;4.67;;
568;SDS011;269;48.884;9.192;2022-08-03T02:46:40;5.37;;;4.97;;
568;SDS011;269;48.884;9.192;2022-08-03T02:49:11;5.37;;;4.97;;
568;SDS011;269;48.884;9.192;2022-08-03T02:51:42;4.83;;;4.47;;
568;SDS011;269;48.884;9.192;2022-08-03T02:54:10;7.60;;;4.60;;
568;SDS011;269;48.884;9.192;2022-08-03T02:56:40;4.90;;;4.60;;
568;SDS011;269;48.884;9.192;2022-08-03T02:59:08;5.23;;;4.83;;
568;SDS011;269;48.884;9.192;2022-08-03T03:01:37;5.10;;;4.70;;
568;SDS011;269;48.884;9.192;2022-08-03T03:04:05;5.20;;;4.80;;
568;SDS011;269;48.884;9.192;2022-08-03T03:06:33;4.83;;;4.53;;
568;SDS011;269;48.884;9.192;2022-08-03T03:09:03;4.70;;;4.37;;
568;SDS011;269;48.884;9.192;2022-08-03T03:11:30;5.13;;;4.73;;
568;SDS011;269;48.884;9.192;2022-08-03T03:13:58;5.30;;;4.90;;
568;SDS011;269;48.884;9.192;2022-08-03T03:16:25;5.40;;;4.90;;
568;SDS011;269;48.884;9.192;2022-08-03T03:18:55;5.53;;;5.00;;
568;SDS011;269;48.884;9.192;2022-08-03T03:21:23;4.67;;;4.37;;
568;SDS011;269;48.884;9.192;2022-08-03T03:23:51;5.37;;;4.90;;
568;SDS011;269;48.884;9.192;2022-08-03T03:26:21;6.10;;;5.70;;
568;SDS011;269;48.884;9.192;2022-08-03T03:28:48;5.30;;;4.90;;
568;SDS011;269;48.884;9.192;2022-08-03T03:31:15;5.80;;;5.40;;
568;SDS011;269;48.884;9.192;2022-08-03T03:33:42;6.10;;;5.70;;
568;SDS011;269;48.884;9.192;2022-08-03T03:36:10;6.30;;;5.80;;
568;SDS011;269;48.884;9.192;2022-08-03T03:38:37;6.57;;;6.07;;
568;SDS011;269;48.884;9.192;2022-08-03T03:41:04;5.77;;;5.27;;
568;SDS011;269;48.884;9.192;2022-08-03T03:43:32;6.77;;;6.13;;
568;SDS011;269;48.884;9.192;2022-08-03T03:46:00;6.53;;;6.03;;
568;SDS011;269;48.884;9.192;2022-08-03T03:48:27;6.30;;;5.70;;
568;SDS011;269;48.884;9.192;2022-08-03T03:50:54;6.97;;;6.47;;
568;SDS011;269;48.884;9.192;2022-08-03T03:53:22;6.33;;;5.80;;
568;SDS011;269;48.884;9.192;2022-08-03T03:55:51;6.83;;;6.23;;
568;SDS011;269;48.884;9.192;2022-08-03T03:58:18;7.10;;;6.50;;
568;SDS011;269;48.884;9.192;2022-08-03T04:00:47;6.63;;;6.13;;
568;SDS011;269;48.884;9.192;2022-08-03T04:03:14;5.97;;;5.57;;
568;SDS011;269;48.884;9.192;2022-08-03T04:05:42;8.03;;;7.23;;
568;SDS011;269;48.884;9.192;2022-08-03T04:08:27;7.63;;;7.03;;
568;SDS011;269;48.884;9.192;2022-08-03T04:11:12;7.90;;;7.23;;
568;SDS011;269;48.884;9.192;2022-08-03T04:13:52;8.10;;;7.40;;
568;SDS011;269;48.884;9.192;2022-08-03T04:16:24;7.70;;;7.10;;
568;SDS011;269;48.884;9.192;2022-08-03T04:18:55;7.67;;;7.07;;
568;SDS011;269;48.884;9.192;2022-08-03T04:21:26;7.90;;;7.13;;
568;SDS011;269;48.884;9.192;2022-08-03T04:23:58;7.57;;;6.97;;
568;SDS011;269;48.884;9.192;2022-08-03T04:26:28;7.80;;;7.10;;
568;SDS011;269;48.884;9.192;2022-08-03T04:28:58;7.80;;;7.20;;
568;SDS011;269;48.884;9.192;2022-08-03T04:31:27;7.17;;;6.67;;
568;SDS011;269;48.884;9.192;2022-08-03T04:33:55;7.00;;;6.40;;
568;SDS011;269;48.884;9.192;2022-08-03T04:36:24;7.90;;;7.10;;
568;SDS011;269;48.884;9.192;2022-08-03T04:38:54;7.53;;;6.80;;
568;SDS011;269;48.884;9.192;2022-08-03T04:41:25;8.13;;;7.43;;
568;SDS011;269;48.884;9.192;2022-08-03T04:43:54;6.57;;;6.03;;
568;SDS011;269;48.884;9.192;2022-08-03T04:46:25;7.10;;;6.50;;
568;SDS011;269;48.884;9.192;2022-08-03T04:48:57;7.23;;;6.60;;
568;SDS011;269;48.884;9.192;2022-08-03T04:51:24;6.80;;;6.30;;
568;SDS011;269;48.884;9.192;2022-08-03T04:53:52;6.40;;;5.90;;
568;SDS011;269;48.884;9.192;2022-08-03T04:56:19;6.23;;;5.77;;
568;SDS011;269;48.884;9.192;2022-08-03T04:58:46;6.63;;;6.17;;
568;SDS011;269;48.884;9.192;2022-08-03T05:01:13;7.23;;;6.53;;
568;SDS011;269;48.884;9.192;2022-08-03T05:03:42;7.30;;;6.70;;
568;SDS011;269;48.884;9.192;2022-08-03T05:06:09;8.10;;;6.90;;
568;SDS011;269;48.884;9.192;2022-08-03T05:08:36;6.83;;;6.33;;
568;SDS011;269;48.884;9.192;2022-08-03T05:11:04;7.40;;;6.80;;
568;SDS011;269;48.884;9.192;2022-08-03T05:13:31;7.30;;;6.70;;
568;SDS011;269;48.884;9.192;2022-08-03T05:15:58;6.93;;;6.43;;
568;SDS011;269;48.884;9.192;2022-08-03T05:18:26;7.00;;;6.50;;
568;SDS011;269;48.884;9.192;2022-08-03T05:20:55;7.87;;;7.03;;
568;SDS011;269;48.884;9.192;2022-08-03T05:23:22;6.90;;;6.40;;
568;SDS011;269;48.884;9.192;2022-08-03T05:25:49;6.80;;;6.20;;
568;SDS011;269;48.884;9.192;2022-08-03T05:28:17;6.93;;;6.23;;
568;SDS011;269;48.884;9.192;2022-08-03T05:30:44;7.20;;;6.50;;
568;SDS011;269;48.884;9.192;2022-08-03T05:33:11;6.90;;;6.30;;
568;SDS011;269;48.884;9.192;2022-08-03T05:35:38;6.77;;;6.10;;
568;SDS011;269;48.884;9.192;2022-08-03T05:38:06;8.10;;;6.60;;
568;SDS011;269;48.884;9.192;2022-08-03T05:40:33;7.53;;;6.83;;
568;SDS011;269;48.884;9.192;2022-08-03T05:43:00;7.73;;;7.00;;
568;SDS011;269;48.884;9.192;2022-08-03T05:45:28;7.20;;;6.60;;
568;SDS011;269;48.884;9.192;2022-08-03T05:47:55;6.93;;;6.43;;
568;SDS011;269;48.884;9.192;2022-08-03T05:50:22;6.53;;;5.90;;
568;SDS011;269;48.884;9.192;2022-08-03T05:52:49;7.33;;;6.80;;
568;SDS011;269;48.884;9.192;2022-08-03T05:55:18;6.97;;;6.47;;
568;SDS011;269;48.884;9.192;2022-08-03T05:57:45;6.17;;;5.70;;
568;SDS011;269;48.884;9.192;2022-08-03T06:00:12;7.20;;;6.60;;
568;SDS011;269;48.884;9.192;2022-08-03T06:02:40;6.40;;;5.90;;
568;SDS011;269;48.884;9.192;2022-08-03T06:05:08;6.80;;;6.30;;
568;SDS011;269;48.884;9.192;2022-08-03T06:07:35;7.03;;;6.20;;
568;SDS011;269;48.884;9.192;2022-08-03T06:10:03;6.10;;;5.60;;
568;SDS011;269;48.884;9.192;2022-08-03T17:36:13;1.57;;;1.47;;
568;SDS011;269;48.884;9.192;2022-08-03T17:38:45;1.87;;;1.60;;
568;SDS011;269;48.884;9.192;2022-08-03T17:41:14;2.67;;;1.80;;
568;SDS011;269;48.884;9.192;2022-08-03T17:43:42;3.57;;;1.67;;
568;SDS011;269;48.884;9.192;2022-08-03T17:46:11;1.90;;;1.80;;
568;SDS011;269;48.884;9.192;2022-08-03T17:48:39;1.87;;;1.77;;
568;SDS011;269;48.884;9.192;2022-08-03T17:51:07;1.50;;;1.40;;
568;SDS011;269;48.884;9.192;2022-08-03T17:53:51;1.53;;;1.43;;
568;SDS011;269;48.884;9.192;2022-08-03T17:56:27;1.70;;;1.60;;
568;SDS011;269;48.884;9.192;2022-08-03T17:59:00;1.80;;;1.70;;
568;SDS011;269;48.884;9.192;2022-08-03T18:01:34;5.30;;;5.00;;
568;SDS011;269;48.884;9.192;2022-08-03T18:04:26;1.77;;;1.53;;
568;SDS011;269;48.884;9.192;2022-08-03T18:06:54;1.70;;;1.60;;
568;SDS011;269;48.884;9.192;2022-08-03T18:09:25;1.70;;;1.60;;
568;SDS011;269;48.884;9.192;2022-08-03T18:11:54;1.60;;;1.50;;
568;SDS011;269;48.884;9.192;2022-08-03T18:14:26;2.03;;;1.50;;
568;SDS011;269;48.884;9.192;2022-08-03T18:17:00;1.73;;;1.63;;
568;SDS011;269;48.884;9.192;2022-08-03T18:19:32;1.87;;;1.77;;
568;SDS011;269;48.884;9.192;2022-08-03T18:22:01;1.77;;;1.67;;
568;SDS011;269;48.884;9.192;2022-08-03T18:24:29;1.50;;;1.40;;
568;SDS011;269;48.884;9.192;2022-08-03T18:26:57;1.70;;;1.60;;
568;SDS011;269;48.884;9.192;2022-08-03T18:29:26;2.00;;;1.90;;
568;SDS011;269;48.884;9.192;2022-08-03T18:31:56;1.50;;;1.40;;
568;SDS011;269;48.884;9.192;2022-08-03T18:34:25;2.80;;;1.80;;
568;SDS011;269;48.884;9.192;2022-08-03T18:36:52;2.07;;;1.83;;
568;SDS011;269;48.884;9.192;2022-08-03T18:39:21;1.70;;;1.60;;
568;SDS011;269;48.884;9.192;2022-08-03T18:41:49;1.40;;;1.30;;
568;SDS011;269;48.884;9.192;2022-08-03T18:44:16;2.20;;;2.00;;
568;SDS011;269;48.884;9.192;2022-08-03T18:46:45;1.70;;;1.60;;
568;SDS011;269;48.884;9.192;2022-08-03T18:49:19;1.90;;;1.80;;
568;SDS011;269;48.884;9.192;2022-08-03T18:51:56;2.17;;;1.80;;
568;SDS011;269;48.884;9.192;2022-08-03T18:54:29;2.07;;;1.57;;
568;SDS011;269;48.884;9.192;2022-08-03T18:57:02;2.33;;;1.90;;
568;SDS011;269;48.884;9.192;2022-08-03T18:59:30;2.63;;;1.73;;
568;SDS011;269;48.884;9.192;2022-08-03T19:02:14;2.23;;;2.00;;
568;SDS011;269;48.884;9.192;2022-08-03T19:04:50;1.83;;;1.73;;
568;SDS011;269;48.884;9.192;2022-08-03T19:07:22;1.73;;;1.63;;
568;SDS011;269;48.884;9.192;2022-08-03T19:09:51;1.80;;;1.70;;
568;SDS011;269;48.884;9.192;2022-08-03T19:12:22;2.13;;;1.93;;
568;SDS011;269;48.884;9.192;2022-08-03T19:14:51;3.03;;;1.97;;
568;SDS011;269;48.884;9.192;2022-08-03T19:17:21;1.90;;;1.80;;
568;SDS011;269;48.884;9.192;2022-08-03T19:19:51;2.23;;;2.00;;
568;SDS011;269;48.884;9.192;2022-08-03T19:22:19;2.00;;;1.90;;
568;SDS011;269;48.884;9.192;2022-08-03T19:24:47;2.03;;;1.93;;
568;SDS011;269;48.884;9.192;2022-08-03T19:27:17;2.33;;;2.10;;
568;SDS011;269;48.884;9.192;2022-08-03T19:29:46;2.30;;;2.10;;
568;SDS011;269;48.884;9.192;2022-08-03T19:32:14;2.00;;;1.90;;
568;SDS011;269;48.884;9.192;2022-08-03T19:34:43;1.97;;;1.87;;
568;SDS011;269;48.884;9.192;2022-08-03T19:37:11;2.33;;;1.97;;
568;SDS011;269;48.884;9.192;2022-08-03T19:39:40;2.50;;;2.30;;
568;SDS011;269;48.884;9.192;2022-08-03T19:42:08;2.10;;;1.90;;
568;SDS011;269;48.884;9.192;2022-08-03T19:44:38;2.30;;;2.20;;
568;SDS011;269;48.884;9.192;2022-08-03T19:47:11;2.40;;;2.20;;
568;SDS011;269;48.884;9.192;2022-08-03T19:49:44;2.50;;;2.30;;
568;SDS011;269;48.884;9.192;2022-08-03T19:52:13;2.27;;;2.00;;
568;SDS011;269;48.884;9.192;2022-08-03T19:54:41;2.00;;;1.90;;
568;SDS011;269;48.884;9.192;2022-08-03T19:57:10;2.40;;;2.20;;
568;SDS011;269;48.884;9.192;2022-08-03T19:59:42;2.47;;;2.07;;
568;SDS011;269;48.884;9.192;2022-08-03T20:02:11;2.60;;;2.40;;
568;SDS011;269;48.884;9.192;2022-08-03T20:04:38;3.30;;;2.40;;
568;SDS011;269;48.884;9.192;2022-08-03T20:07:05;2.30;;;2.10;;
568;SDS011;269;48.884;9.192;2022-08-03T20:09:32;2.50;;;2.40;;
568;SDS011;269;48.884;9.192;2022-08-03T20:12:00;2.50;;;2.30;;
568;SDS011;269;48.884;9.192;2022-08-03T20:14:28;2.80;;;2.60;;
568;SDS011;269;48.884;9.192;2022-08-03T20:16:55;2.37;;;2.27;;
568;SDS011;269;48.884;9.192;2022-08-03T20:19:24;2.60;;;2.40;;
568;SDS011;269;48.884;9.192;2022-08-03T20:21:51;2.50;;;2.30;;
568;SDS011;269;48.884;9.192;2022-08-03T20:24:21;3.80;;;2.73;;
568;SDS011;269;48.884;9.192;2022-08-03T20:26:53;2.67;;;2.47;;
568;SDS011;269;48.884;9.192;2022-08-03T20:29:24;2.30;;;2.10;;
568;SDS011;269;48.884;9.192;2022-08-03T20:31:55;2.40;;;2.20;;
568;SDS011;269;48.884;9.192;2022-08-03T20:34:24;2.70;;;2.40;;
568;SDS011;269;48.884;9.192;2022-08-03T20:36:51;2.80;;;2.50;;
568;SDS011;269;48.884;9.192;2022-08-03T20:39:18;2.50;;;2.30;;
568;SDS011;269;48.884;9.192;2022-08-03T20:41:45;2.47;;;2.27;;
568;SDS011;269;48.884;9.192;2022-08-03T20:44:12;2.23;;;2.13;;
568;SDS011;269;48.884;9.192;2022-08-03T20:46:39;3.20;;;2.30;;
568;SDS011;269;48.884;9.192;2022-08-03T20:49:06;2.67;;;2.47;;
568;SDS011;269;48.884;9.192;2022-08-03T20:51:35;2.90;;;2.70;;
568;SDS011;269;48.884;9.192;2022-08-03T20:54:05;2.97;;;2.70;;
568;SDS011;269;48.884;9.192;2022-08-03T20:56:33;3.10;;;2.60;;
568;SDS011;269;48.884;9.192;2022-08-03T20:59:02;2.57;;;2.37;;
568;SDS011;269;48.884;9.192;2022-08-03T21:01:30;5.20;;;3.13;;
568;SDS011;269;48.884;9.192;2022-08-03T21:03:57;3.00;;;2.70;;
568;SDS011;269;48.884;9.192;2022-08-03T21:06:29;3.00;;;2.80;;
568;SDS011;269;48.884;9.192;2022-08-03T21:09:02;4.20;;;2.83;;
568;SDS011;269;48.884;9.192;2022-08-03T21:11:32;3.03;;;2.83;;
568;SDS011;269;48.884;9.192;2022-08-03T21:14:05;2.80;;;2.60;;
568;SDS011;269;48.884;9.192;2022-08-03T21:16:38;2.80;;;2.60;;
568;SDS011;269;48.884;9.192;2022-08-03T21:19:10;3.27;;;2.80;;
568;SDS011;269;48.884;9.192;2022-08-03T21:21:38;3.00;;;2.80;;
568;SDS011;269;48.884;9.192;2022-08-03T21:24:07;3.37;;;3.07;;
568;SDS011;269;48.884;9.192;2022-08-03T21:26:39;4.30;;;3.00;;
568;SDS011;269;48.884;9.192;2022-08-03T21:29:06;3.33;;;3.03;;
568;SDS011;269;48.884;9.192;2022-08-03T21:31:38;4.00;;;3.20;;
568;SDS011;269;48.884;9.192;2022-08-03T21:34:06;3.10;;;2.80;;
568;SDS011;269;48.884;9.192;2022-08-03T21:36:34;3.17;;;2.67;;
568;SDS011;269;48.884;9.192;2022-08-03T21:39:03;3.70;;;2.60;;
568;SDS011;269;48.884;9.192;2022-08-03T21:41:33;2.73;;;2.50;;
568;SDS011;269;48.884;9.192;2022-08-03T21:44:01;3.00;;;2.70;;
568;SDS011;269;48.884;9.192;2022-08-03T21:46:30;2.87;;;2.67;;
568;SDS011;269;48.884;9.192;2022-08-03T21:49:01;3.30;;;2.37;;
568;SDS011;269;48.884;9.192;2022-08-03T21:51:31;2.77;;;2.57;;
568;SDS011;269;48.884;9.192;2022-08-03T21:54:00;2.37;;;2.17;;
568;SDS011;269;48.884;9.192;2022-08-03T21:56:29;2.50;;;2.30;;
568;SDS011;269;48.884;9.192;2022-08-03T21:59:03;2.43;;;2.23;;
568;SDS011;269;48.884;9.192;2022-08-03T22:01:32;2.87;;;2.50;;
568;SDS011;269;48.884;9.192;2022-08-03T22:04:01;2.53;;;2.33;;
568;SDS011;269;48.884;9.192;2022-08-03T22:06:31;2.83;;;2.63;;
568;SDS011;269;48.884;9.192;2022-08-03T22:08:58;2.90;;;2.60;;
568;SDS011;269;48.884;9.192;2022-08-03T22:11:25;2.40;;;2.30;;
568;SDS011;269;48.884;9.192;2022-08-03T22:13:52;2.23;;;2.03;;
568;SDS011;269;48.884;9.192;2022-08-03T22:16:21;2.53;;;2.33;;
568;SDS011;269;48.884;9.192;2022-08-03T22:18:48;2.70;;;2.50;;
568;SDS011;269;48.884;9.192;2022-08-03T22:21:15;2.40;;;2.23;;
568;SDS011;269;48.884;9.192;2022-08-03T22:23:43;2.80;;;2.60;;
568;SDS011;269;48.884;9.192;2022-08-03T22:26:13;2.70;;;2.50;;
568;SDS011;269;48.884;9.192;2022-08-03T22:28:43;3.10;;;2.80;;
568;SDS011;269;48.884;9.192;2022-08-03T22:31:11;2.53;;;2.33;;
568;SDS011;269;48.884;9.192;2022-08-03T22:33:40;2.20;;;2.00;;
568;SDS011;269;48.884;9.192;2022-08-03T22:36:09;2.53;;;2.33;;
568;SDS011;269;48.884;9.192;2022-08-03T22:38:37;4.13;;;2.63;;
568;SDS011;269;48.884;9.192;2022-08-03T22:41:05;2.83;;;2.30;;
568;SDS011;269;48.884;9.192;2022-08-03T22:43:32;3.20;;;3.00;;
568;SDS011;269;48.884;9.192;2022-08-03T22:46:01;2.33;;;2.13;;
568;SDS011;269;48.884;9.192;2022-08-03T22:48:31;2.97;;;2.43;;
568;SDS011;269;48.884;9.192;2022-08-03T22:51:01;2.30;;;2.20;;
568;SDS011;269;48.884;9.192;2022-08-03T22:53:28;2.17;;;2.07;;
568;SDS011;269;48.884;9.192;2022-08-03T22:55:56;2.97;;;2.67;;
568;SDS011;269;48.884;9.192;2022-08-03T22:58:23;3.00;;;2.70;;
568;SDS011;269;48.884;9.192;2022-08-03T23:00:51;2.80;;;2.60;;
568;SDS011;269;48.884;9.192;2022-08-03T23:03:22;2.77;;;2.57;;
568;SDS011;269;48.884;9.192;2022-08-03T23:05:52;2.13;;;1.93;;
568;SDS011;269;48.884;9.192;2022-08-03T23:08:21;4.03;;;2.60;;
568;SDS011;269;48.884;9.192;2022-08-03T23:10:51;2.77;;;2.47;;
568;SDS011;269;48.884;9.192;2022-08-03T23:13:20;4.00;;;2.73;;
568;SDS011;269;48.884;9.192;2022-08-03T23:15:56;3.00;;;2.80;;
568;SDS011;269;48.884;9.192;2022-08-03T23:18:26;2.60;;;2.40;;
568;SDS011;269;48.884;9.192;2022-08-03T23:20:56;3.13;;;2.83;;
568;SDS011;269;48.884;9.192;2022-08-03T23:23:27;4.10;;;2.53;;
568;SDS011;269;48.884;9.192;2022-08-03T23:25:55;2.87;;;2.53;;
568;SDS011;269;48.884;9.192;2022-08-03T23:28:22;2.87;;;2.63;;
568;SDS011;269;48.884;9.192;2022-08-03T23:30:51;2.63;;;2.43;;
568;SDS011;269;48.884;9.192;2022-08-03T23:33:20;2.70;;;2.50;;
568;SDS011;269;48.884;9.192;2022-08-03T23:35:48;2.90;;;2.60;;
568;SDS011;269;48.884;9.192;2022-08-03T23:38:24;2.80;;;2.60;;
568;SDS011;269;48.884;9.192;2022-08-03T23:40:54;2.70;;;2.50;;
568;SDS011;269;48.884;9.192;2022-08-03T23:43:24;4.77;;;2.63;;
568;SDS011;269;48.884;9.192;2022-08-03T23:45:51;4.50;;;2.40;;
568;SDS011;269;48.884;9.192;2022-08-03T23:48:22;3.00;;;2.47;;
568;SDS011;269;48.884;9.192;2022-08-03T23:50:51;2.60;;;2.40;;
568;SDS011;269;48.884;9.192;2022-08-03T23:53:25;3.07;;;2.30;;
568;SDS011;269;48.884;9.192;2022-08-03T23:56:05;3.40;;;2.70;;
568;SDS011;269;48.884;9.192;2022-08-03T23:58:43;2.60;;;2.40;;
